Time;durP1;ratioP1;P1;durP2;ratioP2;P2;SDS_P1;SDS_P2;PMS_P1;PMS_P2;Temp;Humidity;BMP_temperature;BMP_pressure;BME280_temperature;BME280_humidity;BME280_pressure;Samples;Min_cycle;Max_cycle;Signal;HPM_P1;HPM_P2
2023/06/08 00:00:28;;;;;;;7.70;5.80;;;;;;;16.90;78.86;97920.33;106909;1277;25461;-83
2023/06/08 00:03:18;;;;;;;6.30;5.70;;;;;;;17.00;79.33;97923.37;107036;1277;24331;-82
2023/06/08 00:05:49;;;;;;;6.90;6.20;;;;;;;16.99;78.04;97923.12;107067;1277;23215;-82
2023/06/08 00:08:18;;;;;;;7.70;6.80;;;;;;;16.84;78.01;97924.40;107040;1277;24203;-83
2023/06/08 00:10:46;;;;;;;6.80;5.90;;;;;;;16.63;78.65;97921.36;106845;1277;25535;-83
2023/06/08 00:13:16;;;;;;;8.60;7.10;;;;;;;16.54;79.65;97926.19;106964;1277;22540;-84
2023/06/08 00:15:44;;;;;;;7.00;6.10;;;;;;;16.59;79.95;97921.77;106905;1277;23940;-84
2023/06/08 00:18:12;;;;;;;7.30;6.60;;;;;;;16.67;79.47;97919.30;107005;1277;22511;-85
2023/06/08 00:20:41;;;;;;;6.10;5.30;;;;;;;16.70;79.76;97916.15;107124;1277;22629;-84
2023/06/08 00:23:09;;;;;;;6.90;5.70;;;;;;;16.81;81.22;97913.09;107099;1277;23024;-86
2023/06/08 00:25:37;;;;;;;7.30;6.00;;;;;;;16.94;80.60;97907.95;107050;1277;22534;-86
2023/06/08 00:28:05;;;;;;;6.80;6.10;;;;;;;17.01;79.87;97908.80;107154;1277;24369;-87
2023/06/08 00:30:33;;;;;;;7.50;6.70;;;;;;;16.97;79.23;97909.29;107143;1277;25600;-84
2023/06/08 00:33:01;;;;;;;9.30;8.30;;;;;;;16.89;79.44;97912.42;107052;1277;22555;-83
2023/06/08 00:35:31;;;;;;;8.00;7.20;;;;;;;16.88;80.59;97907.80;107096;1277;22641;-85
2023/06/08 00:37:59;;;;;;;7.70;6.50;;;;;;;16.88;79.42;97911.39;107019;1277;22602;-85
2023/06/08 00:40:27;;;;;;;7.10;6.40;;;;;;;16.80;79.42;97908.80;106921;1277;22526;-84
2023/06/08 00:42:55;;;;;;;7.50;6.80;;;;;;;16.78;79.76;97908.15;107044;1277;22535;-83
2023/06/08 00:45:23;;;;;;;8.20;6.50;;;;;;;16.75;79.47;97906.20;107294;1277;22546;-83
2023/06/08 00:47:51;;;;;;;7.70;5.80;;;;;;;16.76;79.49;97907.80;107583;1277;22551;-83
2023/06/08 00:50:20;;;;;;;6.90;6.20;;;;;;;16.69;79.62;97909.58;107059;1277;22648;-84
2023/06/08 00:52:49;;;;;;;7.00;6.30;;;;;;;16.68;79.94;97911.27;107357;1277;24193;-83
2023/06/08 00:55:19;;;;;;;7.40;6.60;;;;;;;16.74;81.40;97905.80;107379;1277;22651;-83
2023/06/08 00:57:48;;;;;;;7.00;6.30;;;;;;;16.79;80.20;97905.13;107189;1277;22545;-85
2023/06/08 01:00:17;;;;;;;7.60;6.30;;;;;;;16.82;80.02;97903.88;107184;1277;22503;-86
2023/06/08 01:02:47;;;;;;;6.80;6.10;;;;;;;16.81;79.45;97899.20;107132;1277;24382;-84
2023/06/08 01:05:17;;;;;;;8.40;6.90;;;;;;;16.81;80.07;97897.48;107072;1277;23924;-83
2023/06/08 01:08:08;;;;;;;6.50;5.90;;;;;;;16.81;79.37;97896.88;106980;1277;23931;-87
2023/06/08 01:10:57;;;;;;;6.20;5.60;;;;;;;16.77;79.57;97894.66;107032;1277;23943;-87
2023/06/08 01:13:36;;;;;;;6.00;5.40;;;;;;;16.81;79.65;97895.15;106893;1277;22543;-85
2023/06/08 01:16:06;;;;;;;6.70;5.80;;;;;;;16.85;79.32;97893.56;107018;1277;22527;-86
2023/06/08 01:18:38;;;;;;;6.50;5.40;;;;;;;16.82;78.79;97888.89;106996;1277;22665;-86
2023/06/08 01:21:46;;;;;;;6.60;6.00;;;;;;;16.75;78.69;97893.38;107066;1277;24272;-86
2023/06/08 01:24:20;;;;;;;7.10;5.60;;;;;;;16.68;78.73;97890.91;106981;1277;24234;-86
2023/06/08 01:26:49;;;;;;;;;;;;;;;16.68;79.09;97891.66;107183;1277;25347;-85
2023/06/08 01:29:25;;;;;;;6.30;5.50;;;;;;;16.68;78.72;97888.94;106990;1277;25444;-84
2023/06/08 01:31:54;;;;;;;6.80;5.60;;;;;;;16.65;78.42;97891.27;107119;1277;25275;-84
2023/06/08 01:34:22;;;;;;;6.10;5.10;;;;;;;16.63;78.75;97891.52;107114;1277;25369;-84
2023/06/08 01:37:01;;;;;;;5.70;5.20;;;;;;;16.61;78.26;97889.89;107104;1277;22633;-85
2023/06/08 01:39:51;;;;;;;6.10;5.50;;;;;;;16.48;78.14;97890.30;107062;1277;24425;-86
2023/06/08 01:42:22;;;;;;;5.90;5.00;;;;;;;16.25;79.09;97870.59;107232;1270;22644;-86
2023/06/08 01:45:00;;;;;;;5.90;5.20;;;;;;;16.44;79.08;97895.91;107077;1277;24241;-81
2023/06/08 01:47:35;;;;;;;6.30;5.20;;;;;;;16.43;78.11;97894.73;106974;1269;24208;-86
2023/06/08 01:50:05;;;;;;;7.20;6.00;;;;;;;16.30;77.82;97892.73;107053;1277;22556;-82
2023/06/08 01:52:35;;;;;;;6.00;5.40;;;;;;;15.85;76.64;97891.23;107092;1277;22529;-85
2023/06/08 01:55:03;;;;;;;6.50;5.90;;;;;;;15.27;76.97;97890.44;107016;1277;24296;-85
2023/06/08 01:57:31;;;;;;;7.10;5.70;;;;;;;14.74;76.94;97892.27;107013;1275;24497;-81
2023/06/08 01:59:59;;;;;;;6.90;6.20;;;;;;;14.32;76.84;97892.40;106917;1277;25274;-82
2023/06/08 02:02:28;;;;;;;6.90;6.20;;;;;;;13.98;77.25;97896.42;107051;1277;24351;-82
2023/06/08 02:04:57;;;;;;;7.80;7.00;;;;;;;13.74;77.68;97896.61;106682;1277;24212;-82
2023/06/08 02:07:25;;;;;;;7.00;6.30;;;;;;;13.53;77.82;97895.05;106913;1277;24413;-82
2023/06/08 02:09:53;;;;;;;7.70;7.00;;;;;;;13.36;78.26;97892.71;106893;1277;24196;-81
2023/06/08 02:12:22;;;;;;;8.00;7.20;;;;;;;13.24;78.51;97897.16;106910;1276;24140;-82
2023/06/08 02:14:50;;;;;;;7.90;6.90;;;;;;;13.10;78.82;97897.09;106965;1277;22805;-83
2023/06/08 02:17:26;;;;;;;7.30;6.60;;;;;;;13.00;78.94;97898.42;106950;1277;22685;-84
2023/06/08 02:19:56;;;;;;;7.40;6.70;;;;;;;12.92;79.42;97898.92;107091;1277;23198;-84
2023/06/08 02:22:24;;;;;;;6.70;6.10;;;;;;;12.84;80.09;97899.14;107084;1277;22713;-83
2023/06/08 02:24:52;;;;;;;6.70;6.10;;;;;;;12.73;81.03;97895.39;107097;1277;24389;-83
2023/06/08 02:27:20;;;;;;;6.50;5.90;;;;;;;12.58;81.16;97896.18;107049;1277;22525;-83
2023/06/08 02:29:48;;;;;;;7.60;6.90;;;;;;;12.48;81.27;97890.70;107130;1277;24062;-82
2023/06/08 02:32:16;;;;;;;6.70;6.00;;;;;;;12.44;81.56;97894.27;106999;1277;22580;-82
2023/06/08 02:34:53;;;;;;;6.70;6.10;;;;;;;12.39;81.69;97895.80;106924;1277;23268;-83
2023/06/08 02:37:23;;;;;;;7.10;6.40;;;;;;;12.32;82.14;97890.10;106930;1256;24292;-83
2023/06/08 02:39:52;;;;;;;7.90;6.80;;;;;;;12.30;83.89;97894.65;106882;1277;25417;-83
2023/06/08 02:42:20;;;;;;;6.80;6.10;;;;;;;12.18;85.20;97892.29;106827;1277;24196;-83
2023/06/08 02:44:48;;;;;;;7.40;6.70;;;;;;;12.02;85.15;97896.05;106992;1277;22597;-83
2023/06/08 02:47:17;;;;;;;7.00;6.00;;;;;;;11.88;85.25;97895.64;106882;1277;22542;-82
2023/06/08 02:49:45;;;;;;;7.50;6.80;;;;;;;11.81;85.75;97897.61;106979;1277;22543;-82
2023/06/08 02:52:13;;;;;;;6.80;6.20;;;;;;;11.72;86.08;97901.86;106989;1277;22529;-84
2023/06/08 02:54:41;;;;;;;6.80;6.20;;;;;;;11.70;86.02;97901.96;107111;1277;25468;-82
2023/06/08 02:57:09;;;;;;;7.40;6.60;;;;;;;11.73;86.12;97901.73;106935;1277;25463;-82
2023/06/08 02:59:44;;;;;;;7.20;6.50;;;;;;;11.75;87.38;97902.20;106982;1277;22568;-82
2023/06/08 03:02:12;;;;;;;7.20;6.50;;;;;;;11.69;87.33;97896.31;107114;1277;22629;-82
2023/06/08 03:04:43;;;;;;;6.70;5.90;;;;;;;11.67;87.28;97903.70;106625;1277;22798;-82
2023/06/08 03:07:15;;;;;;;8.30;6.90;;;;;;;11.60;87.98;97907.80;107119;1277;23952;-82
2023/06/08 03:09:48;;;;;;;7.20;6.50;;;;;;;11.52;88.34;97909.77;106992;1277;22242;-81
2023/06/08 03:12:19;;;;;;;7.30;6.60;;;;;;;11.48;89.09;97909.44;106947;1277;25207;-82
2023/06/08 03:14:48;;;;;;;6.90;6.30;;;;;;;11.43;89.52;97911.52;107021;1277;25323;-82
2023/06/08 03:17:19;;;;;;;7.30;6.60;;;;;;;11.46;91.36;97909.90;107043;1277;22563;-83
2023/06/08 03:19:47;;;;;;;7.40;6.70;;;;;;;11.47;91.37;97912.16;107006;1277;22525;-84
2023/06/08 03:22:19;;;;;;;7.10;6.30;;;;;;;11.47;92.36;97912.52;106948;1277;22786;-84
2023/06/08 03:25:00;;;;;;;7.10;6.20;;;;;;;11.47;92.53;97915.96;106915;1277;22641;-85
2023/06/08 03:27:29;;;;;;;7.20;6.50;;;;;;;11.43;92.39;97914.92;107055;1277;22483;-85
2023/06/08 03:29:58;;;;;;;6.80;6.20;;;;;;;11.41;92.26;97916.16;107064;1277;22731;-84
2023/06/08 03:32:33;;;;;;;7.00;6.30;;;;;;;11.44;92.49;97919.44;107020;1278;22738;-84
2023/06/08 03:35:01;;;;;;;7.30;6.60;;;;;;;11.48;91.82;97920.05;107019;1277;24099;-83
2023/06/08 03:37:29;;;;;;;6.50;5.90;;;;;;;11.57;91.47;97922.83;106952;1277;23934;-83
2023/06/08 03:39:57;;;;;;;6.40;5.80;;;;;;;11.66;90.90;97926.23;106867;1277;25303;-82
2023/06/08 03:42:25;;;;;;;9.20;7.30;;;;;;;11.76;90.87;97922.83;106924;1277;22742;-83
2023/06/08 03:44:55;;;;;;;7.80;7.10;;;;;;;11.86;90.83;97927.59;106998;1277;22533;-83
2023/06/08 03:47:25;;;;;;;7.70;6.40;;;;;;;11.94;90.62;97928.33;107070;1277;22522;-83
2023/06/08 03:49:55;;;;;;;7.20;6.50;;;;;;;11.99;90.87;97922.90;107088;1277;22755;-83
2023/06/08 03:52:23;;;;;;;8.80;7.90;;;;;;;12.09;91.05;97924.34;107031;1277;22543;-83
2023/06/08 03:54:51;;;;;;;9.30;8.40;;;;;;;12.17;91.47;97919.05;107090;1277;25340;-83
2023/06/08 03:57:21;;;;;;;8.50;7.80;;;;;;;12.27;91.14;97916.29;109851;1277;22622;-84
2023/06/08 03:59:50;;;;;;;7.90;7.20;;;;;;;12.39;91.74;97915.93;109198;1277;23259;-84
2023/06/08 04:02:18;;;;;;;8.00;7.30;;;;;;;12.49;91.58;97920.02;107005;1277;25429;-84
2023/06/08 04:04:47;;;;;;;8.30;7.60;;;;;;;12.59;91.39;97917.77;107067;1277;25541;-83
2023/06/08 04:07:16;;;;;;;9.10;8.30;;;;;;;12.72;91.52;97916.44;106953;1277;22738;-83
2023/06/08 04:09:45;;;;;;;9.60;8.10;;;;;;;12.87;91.32;97918.09;107064;1277;22651;-83
2023/06/08 04:12:13;;;;;;;26.60;24.10;;;;;;;12.98;91.16;97915.41;107190;1256;22540;-83
2023/06/08 04:14:41;;;;;;;19.60;17.50;;;;;;;13.09;91.39;97917.27;107155;1277;24176;-83
2023/06/08 04:17:09;;;;;;;18.70;16.80;;;;;;;13.21;91.56;97915.03;107015;1277;22507;-84
2023/06/08 04:19:37;;;;;;;18.80;16.90;;;;;;;13.31;91.70;97910.43;106997;1277;22530;-85
2023/06/08 04:22:05;;;;;;;17.10;15.50;;;;;;;13.42;91.90;97909.17;106921;1255;22635;-83
2023/06/08 04:24:38;;;;;;;16.30;14.80;;;;;;;13.55;91.58;97909.00;107116;1277;22783;-84
2023/06/08 04:27:07;;;;;;;15.60;13.70;;;;;;;13.69;91.65;97904.96;107271;1277;22525;-83
2023/06/08 04:29:35;;;;;;;15.00;13.60;;;;;;;13.83;91.81;97908.23;107115;1277;22521;-84
2023/06/08 04:32:04;;;;;;;12.40;11.30;;;;;;;13.98;91.79;97904.84;106991;1277;24193;-85
2023/06/08 04:34:33;;;;;;;11.00;10.00;;;;;;;14.10;91.68;97903.34;107061;1277;22560;-84
2023/06/08 04:37:01;;;;;;;11.40;10.40;;;;;;;14.18;91.93;97902.05;107256;1277;22527;-84
2023/06/08 04:39:30;;;;;;;11.10;10.00;;;;;;;14.25;91.89;97898.36;107040;1277;25506;-84
2023/06/08 04:41:59;;;;;;;11.00;9.90;;;;;;;14.37;91.97;97899.38;106940;1277;22661;-83
2023/06/08 04:44:31;;;;;;;10.70;9.80;;;;;;;14.48;92.03;97902.80;107127;1277;25309;-84
2023/06/08 04:47:02;;;;;;;8.60;7.50;;;;;;;14.63;92.23;97902.14;107217;1277;23773;-82
2023/06/08 04:49:31;;;;;;;10.40;7.90;;;;;;;14.81;92.52;97897.27;107024;1277;22552;-82
2023/06/08 04:52:00;;;;;;;9.10;8.20;;;;;;;14.98;92.52;97897.19;106970;1278;24248;-83
2023/06/08 04:54:28;;;;;;;8.90;7.80;;;;;;;15.13;92.48;97896.50;106869;1277;22532;-83
2023/06/08 04:57:00;;;;;;;7.80;7.00;;;;;;;15.23;92.34;97899.06;106945;1277;23166;-83
2023/06/08 04:59:29;;;;;;;10.40;7.70;;;;;;;15.34;92.16;97895.86;107031;1278;22529;-83
2023/06/08 05:01:57;;;;;;;7.90;6.50;;;;;;;15.48;92.18;97899.76;107112;1277;22554;-83
2023/06/08 05:04:26;;;;;;;7.50;6.80;;;;;;;15.61;92.13;97901.59;107094;1277;22767;-83
2023/06/08 05:06:54;;;;;;;7.70;6.80;;;;;;;15.76;92.00;97902.64;107123;1277;25057;-84
2023/06/08 05:09:22;;;;;;;6.80;6.10;;;;;;;15.86;91.87;97902.00;107115;1275;22541;-85
2023/06/08 05:11:50;;;;;;;6.70;6.00;;;;;;;15.95;91.46;97902.67;107018;1277;22544;-81
2023/06/08 05:14:18;;;;;;;6.40;5.10;;;;;;;16.00;91.06;97900.23;106903;1277;23487;-82
2023/06/08 05:16:46;;;;;;;8.30;5.50;;;;;;;16.00;90.18;97898.82;107026;1273;22622;-82
2023/06/08 05:19:15;;;;;;;6.50;5.80;;;;;;;16.04;90.37;97901.45;106926;1277;22565;-83
2023/06/08 05:21:43;;;;;;;6.00;5.40;;;;;;;16.10;89.80;97903.14;107015;1278;22735;-84
2023/06/08 05:24:11;;;;;;;6.90;6.20;;;;;;;16.13;89.24;97907.38;106958;1278;22515;-85
2023/06/08 05:26:39;;;;;;;7.60;6.40;;;;;;;16.13;88.90;97907.93;106950;1277;22584;-80
2023/06/08 05:29:07;;;;;;;6.30;5.60;;;;;;;16.16;88.38;97909.34;106858;1277;25465;-78
2023/06/08 05:31:36;;;;;;;5.80;5.10;;;;;;;16.23;87.62;97908.12;106651;1274;22532;-78
2023/06/08 05:34:04;;;;;;;6.60;5.90;;;;;;;16.32;87.74;97911.37;106626;1277;22629;-78
2023/06/08 05:36:32;;;;;;;7.30;5.60;;;;;;;16.40;87.47;97911.63;106770;1277;22528;-78
2023/06/08 05:39:03;;;;;;;7.80;6.20;;;;;;;16.45;87.69;97914.94;106682;1277;25323;-79
2023/06/08 05:41:31;;;;;;;6.20;5.60;;;;;;;16.54;87.57;97914.66;106677;1277;25613;-80
2023/06/08 05:43:59;;;;;;;6.70;6.10;;;;;;;16.76;88.42;97910.44;106774;1277;22535;-81
2023/06/08 05:46:27;;;;;;;5.60;5.00;;;;;;;16.99;88.25;97911.91;106560;1277;25338;-78
2023/06/08 05:48:58;;;;;;;5.80;5.00;;;;;;;17.27;88.03;97908.05;106681;1277;23027;-81
2023/06/08 05:51:26;;;;;;;6.30;5.20;;;;;;;17.55;88.12;97914.45;106629;1277;165987;-79
2023/06/08 05:53:55;;;;;;;6.90;5.70;;;;;;;17.74;87.27;97919.71;106672;1277;23004;-83
2023/06/08 05:56:23;;;;;;;8.80;6.60;;;;;;;17.86;86.71;97921.79;106986;1277;23142;-81
2023/06/08 05:58:51;;;;;;;7.60;6.00;;;;;;;17.92;86.35;97917.45;106971;1277;22537;-82
2023/06/08 06:01:20;;;;;;;6.30;5.70;;;;;;;17.97;86.24;97915.96;107104;1277;22654;-81
2023/06/08 06:03:48;;;;;;;6.80;6.10;;;;;;;18.02;86.24;97917.41;107026;1277;23409;-81
2023/06/08 06:06:17;;;;;;;6.50;5.40;;;;;;;18.04;85.49;97917.23;106628;1256;22736;-81
2023/06/08 06:08:44;;;;;;;7.30;6.50;;;;;;;18.12;86.14;97920.11;107036;1277;22787;-81
2023/06/08 06:11:13;;;;;;;7.80;7.00;;;;;;;18.18;85.41;97920.73;106622;1278;22524;-81
2023/06/08 06:13:41;;;;;;;8.20;7.40;;;;;;;18.14;84.76;97921.11;106657;1277;25271;-80
2023/06/08 06:16:09;;;;;;;8.30;7.50;;;;;;;18.15;84.93;97924.09;106656;1277;23896;-81
2023/06/08 06:18:40;;;;;;;9.40;8.50;;;;;;;18.18;84.54;97929.07;106906;1277;22643;-80
2023/06/08 06:21:08;;;;;;;9.10;7.60;;;;;;;18.17;83.97;97931.95;106888;1276;22694;-81
2023/06/08 06:23:36;;;;;;;8.40;7.50;;;;;;;18.22;83.94;97933.24;107387;1277;22487;-80
2023/06/08 06:26:05;;;;;;;11.70;8.30;;;;;;;18.24;82.63;97936.41;108336;1277;22538;-81
2023/06/08 06:28:33;;;;;;;9.10;8.20;;;;;;;18.03;82.12;97940.19;106976;1277;22583;-83
2023/06/08 06:31:01;;;;;;;8.70;7.80;;;;;;;17.81;81.73;97941.73;107014;1277;24242;-78
2023/06/08 06:33:30;;;;;;;8.90;8.00;;;;;;;17.56;82.40;97947.13;107114;1277;24053;-79
2023/06/08 06:35:58;;;;;;;9.70;8.80;;;;;;;17.48;82.38;97949.98;107068;1278;24277;-82
2023/06/08 06:38:26;;;;;;;9.90;9.00;;;;;;;17.32;81.98;97946.77;107056;1278;22516;-84
2023/06/08 06:40:54;;;;;;;8.90;7.80;;;;;;;17.25;82.80;97949.59;107043;1277;22763;-83
2023/06/08 06:43:22;;;;;;;9.60;8.70;;;;;;;17.33;82.68;97950.08;107076;1278;25363;-82
2023/06/08 06:45:53;;;;;;;10.40;9.40;;;;;;;17.38;82.39;97950.54;107080;1277;22595;-83
2023/06/08 06:48:22;;;;;;;8.60;7.80;;;;;;;17.39;82.69;97944.11;107032;1277;22523;-82
2023/06/08 06:50:52;;;;;;;8.90;8.10;;;;;;;17.49;82.56;97945.03;107100;1277;22784;-84
2023/06/08 06:53:20;;;;;;;9.30;8.40;;;;;;;17.58;82.39;97945.77;107108;1277;25383;-81
2023/06/08 06:55:48;;;;;;;7.80;7.10;;;;;;;17.59;82.58;97944.34;107084;1277;24250;-81
2023/06/08 06:58:16;;;;;;;8.20;7.40;;;;;;;17.80;82.89;97944.80;107097;1278;22661;-81
2023/06/08 07:00:45;;;;;;;8.90;8.00;;;;;;;17.92;81.84;97943.94;106761;1277;22568;-80
2023/06/08 07:03:14;;;;;;;8.50;7.60;;;;;;;17.92;81.50;97938.45;106777;1278;22672;-81
2023/06/08 07:05:42;;;;;;;8.90;8.00;;;;;;;17.94;81.98;97945.71;106915;1277;22528;-83
2023/06/08 07:08:10;;;;;;;8.40;7.60;;;;;;;17.97;81.44;97943.59;107164;1277;26519;-83
2023/06/08 07:10:38;;;;;;;7.40;6.60;;;;;;;17.92;81.71;97945.39;107141;1277;23078;-83
2023/06/08 07:13:06;;;;;;;10.40;9.30;;;;;;;18.00;81.39;97945.63;107154;1277;22652;-78
2023/06/08 07:15:34;;;;;;;9.30;8.30;;;;;;;17.96;80.69;97947.38;106753;1277;22670;-77
2023/06/08 07:18:02;;;;;;;8.70;7.80;;;;;;;17.92;80.86;97950.39;106690;1277;25262;-78
2023/06/08 07:20:30;;;;;;;9.30;8.20;;;;;;;17.90;80.91;97951.52;106652;1277;24192;-77
2023/06/08 07:22:59;;;;;;;9.50;8.60;;;;;;;17.93;81.42;97951.45;106699;1277;22764;-82
2023/06/08 07:25:48;;;;;;;10.80;9.10;;;;;;;18.08;81.31;97955.22;107134;1277;22630;-82
2023/06/08 07:28:35;;;;;;;12.50;8.90;;;;;;;18.14;80.58;97954.74;109542;1278;22535;-84
2023/06/08 07:31:03;;;;;;;9.70;8.90;;;;;;;18.11;80.28;97956.55;109544;1277;22995;-82
2023/06/08 07:33:32;;;;;;;9.80;8.80;;;;;;;18.13;80.49;97957.76;106932;1277;22649;-81
2023/06/08 07:36:00;;;;;;;9.80;8.90;;;;;;;18.19;79.87;97958.61;107114;1277;23249;-81
2023/06/08 07:38:28;;;;;;;10.00;9.00;;;;;;;18.21;79.97;97956.35;107040;1277;22541;-81
2023/06/08 07:40:56;;;;;;;10.60;8.60;;;;;;;18.33;79.98;97957.52;107052;1277;24242;-82
2023/06/08 07:43:24;;;;;;;10.90;9.80;;;;;;;18.48;79.35;97953.80;106942;1277;22554;-80
2023/06/08 07:45:52;;;;;;;16.20;10.00;;;;;;;18.44;78.82;97954.00;107005;1277;25321;-80
2023/06/08 07:48:20;;;;;;;12.10;9.30;;;;;;;18.38;78.71;97954.95;106995;1278;24273;-79
2023/06/08 07:50:48;;;;;;;9.70;8.70;;;;;;;18.37;78.83;97959.27;107012;1277;22566;-80
2023/06/08 07:53:17;;;;;;;10.10;9.20;;;;;;;18.50;79.01;97959.70;106982;1278;22647;-79
2023/06/08 07:55:46;;;;;;;10.30;9.40;;;;;;;18.75;78.51;97951.88;107088;1277;22527;-80
2023/06/08 07:58:14;;;;;;;11.10;9.80;;;;;;;18.89;77.87;97953.27;106695;1277;23358;-80
2023/06/08 08:00:42;;;;;;;11.30;10.30;;;;;;;19.07;77.71;97952.61;106675;1278;22517;-80
2023/06/08 08:03:10;;;;;;;9.10;8.10;;;;;;;19.17;77.39;97953.85;106636;1277;22527;-79
2023/06/08 08:05:39;;;;;;;10.10;9.10;;;;;;;19.31;76.64;97951.20;106603;1277;23925;-78
2023/06/08 08:08:07;;;;;;;10.50;8.30;;;;;;;19.37;76.27;97950.88;106873;1277;25334;-79
2023/06/08 08:10:35;;;;;;;9.10;8.20;;;;;;;19.44;76.69;97953.77;107033;1277;25462;-79
2023/06/08 08:13:03;;;;;;;10.50;8.60;;;;;;;19.61;76.64;97955.11;108085;1264;23268;-81
2023/06/08 08:15:31;;;;;;;9.60;8.70;;;;;;;19.78;75.66;97955.02;107262;1267;22634;-79
2023/06/08 08:18:02;;;;;;;9.90;8.90;;;;;;;19.94;74.76;97953.41;106986;1275;25281;-79
2023/06/08 08:20:30;;;;;;;8.40;7.50;;;;;;;20.01;75.20;97952.61;106987;1278;25288;-80
2023/06/08 08:22:59;;;;;;;8.60;7.80;;;;;;;20.21;74.55;97953.41;106910;1278;22558;-80
2023/06/08 08:25:27;;;;;;;9.20;8.40;;;;;;;20.37;74.89;97949.10;106913;1278;22655;-79
2023/06/08 08:27:55;;;;;;;9.80;8.70;;;;;;;20.56;74.09;97950.96;106927;1270;22548;-80
2023/06/08 08:30:24;;;;;;;9.30;7.70;;;;;;;20.68;73.67;97950.86;106929;1278;22615;-81
2023/06/08 08:32:52;;;;;;;10.00;7.80;;;;;;;20.83;72.50;97948.16;107077;1278;22525;-79
2023/06/08 08:35:22;;;;;;;9.70;8.90;;;;;;;21.01;72.86;97943.14;107044;1278;22523;-80
2023/06/08 08:37:50;;;;;;;10.00;8.70;;;;;;;21.18;73.13;97946.61;107026;1278;22876;-78
2023/06/08 08:40:18;;;;;;;8.50;7.70;;;;;;;21.25;72.91;97948.45;107033;1278;22742;-78
2023/06/08 08:43:02;;;;;;;8.20;7.40;;;;;;;21.30;72.86;97948.52;106964;1277;24219;-78
2023/06/08 08:45:34;;;;;;;8.80;8.00;;;;;;;21.44;71.53;97947.44;106857;1278;23937;-78
2023/06/08 08:48:02;;;;;;;9.80;7.90;;;;;;;21.47;70.64;97943.48;106877;1278;22738;-78
2023/06/08 08:50:34;;;;;;;8.70;7.90;;;;;;;21.50;70.01;97937.27;106902;1278;22640;-79
2023/06/08 08:53:03;;;;;;;9.10;8.30;;;;;;;21.59;70.91;97939.98;106977;1278;25220;-80
2023/06/08 08:55:33;;;;;;;8.70;7.90;;;;;;;21.73;70.75;97938.13;106876;1278;22523;-80
2023/06/08 08:58:05;;;;;;;7.40;6.70;;;;;;;21.71;68.85;97935.75;106759;1278;22545;-80
2023/06/08 09:00:34;;;;;;;8.50;7.70;;;;;;;21.60;69.00;97941.48;106876;1278;22546;-80
2023/06/08 09:03:02;;;;;;;7.00;6.30;;;;;;;21.52;68.25;97936.67;106857;1278;22581;-81
2023/06/08 09:05:30;;;;;;;8.60;7.80;;;;;;;21.49;68.67;97936.55;107079;1278;25362;-81
2023/06/08 09:07:58;;;;;;;9.20;8.00;;;;;;;21.42;68.50;97932.60;106979;1277;22621;-80
2023/06/08 09:10:27;;;;;;;9.30;8.50;;;;;;;21.30;68.34;97930.98;107029;1277;23441;-79
2023/06/08 09:12:56;;;;;;;7.90;7.20;;;;;;;21.17;67.44;97934.79;107073;1277;22524;-80
2023/06/08 09:15:28;;;;;;;7.70;7.00;;;;;;;21.09;67.98;97937.02;107176;1277;22600;-78
2023/06/08 09:17:58;;;;;;;8.10;7.40;;;;;;;21.13;67.49;97938.02;107109;1277;23447;-79
2023/06/08 09:20:34;;;;;;;8.60;7.50;;;;;;;21.18;68.21;97939.48;107135;1277;25261;-79
2023/06/08 09:23:24;;;;;;;9.30;6.70;;;;;;;21.27;67.41;97930.08;107039;1277;22543;-79
2023/06/08 09:25:53;;;;;;;9.40;8.60;;;;;;;21.43;67.34;97930.80;106924;1278;22654;-81
2023/06/08 09:28:28;;;;;;;9.40;8.60;;;;;;;21.50;65.91;97928.71;106891;1278;22645;-80
2023/06/08 09:30:57;;;;;;;8.80;7.90;;;;;;;21.47;66.32;97926.41;106979;1277;22573;-79
2023/06/08 09:33:29;;;;;;;8.30;7.50;;;;;;;21.70;67.10;97928.75;106953;1277;22558;-79
2023/06/08 09:35:57;;;;;;;9.20;8.40;;;;;;;21.94;66.68;97925.79;107037;1277;25518;-80
2023/06/08 09:38:29;;;;;;;8.60;7.70;;;;;;;22.04;66.28;97922.45;107005;1277;22520;-79
2023/06/08 09:41:27;;;;;;;9.10;8.10;;;;;;;22.14;66.65;97921.65;106948;1277;22579;-79
2023/06/08 09:43:55;;;;;;;8.00;7.30;;;;;;;22.35;66.01;97916.70;106375;1284;22602;-79
2023/06/08 09:46:41;;;;;;;12.70;8.20;;;;;;;22.45;66.09;97915.00;106406;1284;22539;-79
2023/06/08 09:49:11;;;;;;;9.00;7.90;;;;;;;22.55;65.42;97909.92;106374;1276;22694;-79
2023/06/08 09:51:46;;;;;;;9.40;8.50;;;;;;;22.55;65.36;97911.83;106607;1273;24207;-79
2023/06/08 09:54:20;;;;;;;8.80;7.90;;;;;;;22.50;64.20;97912.79;106550;1283;25502;-80
2023/06/08 09:56:57;;;;;;;8.90;7.80;;;;;;;22.35;63.75;97907.22;106630;1283;24231;-80
2023/06/08 09:59:36;;;;;;;8.00;7.20;;;;;;;22.39;64.87;97906.39;106515;1283;25332;-79
2023/06/08 10:02:17;;;;;;;8.20;7.40;;;;;;;22.51;64.73;97905.05;106506;1283;22572;-79
2023/06/08 10:04:52;;;;;;;9.10;8.30;;;;;;;22.75;64.60;97907.13;106537;1283;25228;-79
2023/06/08 10:07:29;;;;;;;8.40;7.60;;;;;;;22.82;63.55;97901.61;106483;1283;25331;-79
2023/06/08 10:10:05;;;;;;;7.60;6.90;;;;;;;22.78;63.97;97899.16;106494;1280;22555;-80
2023/06/08 10:12:34;;;;;;;7.60;6.90;;;;;;;22.82;62.67;97899.02;106196;1283;22884;-80
2023/06/08 10:15:02;;;;;;;8.40;7.50;;;;;;;22.66;62.55;97900.23;106537;1283;24292;-80
2023/06/08 10:17:33;;;;;;;8.30;7.50;;;;;;;22.53;62.94;97897.36;106503;1283;25351;-80
2023/06/08 10:20:01;;;;;;;8.00;7.00;;;;;;;22.33;63.24;97878.73;106689;1277;22580;-79
2023/06/08 10:22:32;;;;;;;8.50;7.50;;;;;;;22.52;62.88;97891.38;107114;1277;22520;-81
2023/06/08 10:25:03;;;;;;;7.20;6.50;;;;;;;22.59;62.36;97888.70;107048;1277;22531;-81
2023/06/08 10:27:37;;;;;;;11.30;8.80;;;;;;;22.73;62.99;97891.59;107023;1277;25274;-79
2023/06/08 10:30:06;;;;;;;8.70;7.80;;;;;;;22.73;62.33;97889.06;107062;1277;22531;-79
2023/06/08 10:32:42;;;;;;;7.70;7.00;;;;;;;22.85;62.31;97886.81;107046;1277;23964;-79
2023/06/08 10:35:10;;;;;;;7.30;6.60;;;;;;;23.17;61.91;97888.34;107130;1277;22552;-79
2023/06/08 10:37:47;;;;;;;8.90;6.50;;;;;;;23.37;60.75;97884.38;106645;1277;22523;-78
2023/06/08 10:40:18;;;;;;;10.30;8.60;;;;;;;23.56;61.32;97886.13;107015;1262;24196;-78
2023/06/08 10:42:58;;;;;;;9.30;8.40;;;;;;;23.81;59.98;97883.45;106976;1274;24237;-80
2023/06/08 10:45:46;;;;;;;9.30;8.50;;;;;;;23.91;59.52;97883.88;107056;1277;24179;-78
2023/06/08 10:48:18;;;;;;;8.80;7.90;;;;;;;23.78;59.09;97886.27;107143;1277;22705;-80
2023/06/08 10:50:49;;;;;;;9.60;8.30;;;;;;;23.61;58.63;97884.59;107014;1277;22520;-79
2023/06/08 10:53:18;;;;;;;9.10;8.20;;;;;;;23.52;59.49;97892.01;107115;1277;25418;-79
2023/06/08 10:55:48;;;;;;;8.60;7.80;;;;;;;23.47;58.59;97891.58;107079;1277;22538;-81
2023/06/08 10:58:18;;;;;;;9.20;8.20;;;;;;;23.39;58.53;97890.36;106999;1277;22597;-80
2023/06/08 11:00:52;;;;;;;9.10;7.90;;;;;;;23.26;58.38;97891.52;107350;1277;22533;-80
2023/06/08 11:03:24;;;;;;;9.00;8.10;;;;;;;23.14;57.60;97887.91;107334;1277;23468;-79
2023/06/08 11:05:53;;;;;;;11.50;7.70;;;;;;;22.92;58.32;97888.76;107198;1277;22624;-79
2023/06/08 11:08:22;;;;;;;9.10;8.20;;;;;;;22.86;58.21;97884.23;106990;1277;24359;-79
2023/06/08 11:10:52;;;;;;;8.00;7.30;;;;;;;22.88;58.09;97883.00;107125;1277;24262;-78
2023/06/08 11:13:22;;;;;;;8.70;7.90;;;;;;;22.88;57.77;97882.38;107317;1277;22528;-79
2023/06/08 11:15:50;;;;;;;9.60;8.70;;;;;;;22.84;57.66;97882.34;107056;1277;24277;-79
2023/06/08 11:18:20;;;;;;;9.30;8.50;;;;;;;22.75;57.47;97878.49;107211;1277;25357;-79
2023/06/08 11:20:50;;;;;;;10.90;9.80;;;;;;;22.53;57.22;97873.43;107092;1277;25245;-78
2023/06/08 11:23:19;;;;;;;10.30;9.40;;;;;;;22.34;57.60;97872.86;107057;1277;23280;-79
2023/06/08 11:25:47;;;;;;;11.00;9.90;;;;;;;22.29;58.21;97873.04;107141;1277;22532;-79
2023/06/08 11:28:15;;;;;;;12.30;10.60;;;;;;;22.35;58.26;97866.91;107192;1277;22521;-78
2023/06/08 11:30:43;;;;;;;11.30;10.30;;;;;;;22.41;58.38;97866.02;107158;1256;22661;-79
2023/06/08 11:33:17;;;;;;;11.40;10.20;;;;;;;22.41;58.51;97862.66;107210;1277;22532;-80
2023/06/08 11:35:53;;;;;;;11.10;9.70;;;;;;;22.59;58.80;97859.36;107257;1277;22821;-81
2023/06/08 11:38:23;;;;;;;11.40;10.30;;;;;;;22.76;58.58;97856.92;107353;1277;22530;-83